< < Back
Terminal Aerodrome Forecast


Current Version              Previous Versions:   1  2  3  4  5  6  7  8  9  

Terminal Aerodrome Forecast

118
FTUS44 KBMX 242300
TAFMGM
TAF
KMGM 242328Z 2500/2524 22007KT P6SM VCTS SCT035CB
     FM250200 00000KT P6SM SCT050
     FM250900 00000KT 3SM BR OVC005
     FM251400 26003KT P6SM VCSH BKN035=

Latest METAR

808
SAUS80 KWBC 251600 RRA
MTRMGM
METAR KMGM 251553Z 20004KT 10SM FEW019 SCT080 29/23 A3005 RMK AO2 SLP172
T02890233


USA.gov is the U.S. government's official web portal to all federal, state and local government web resources and services.